Time;durP1;ratioP1;P1;durP2;ratioP2;P2;SDS_P1;SDS_P2;PMS_P1;PMS_P2;Temp;Humidity;BMP_temperature;BMP_pressure;BME280_temperature;BME280_humidity;BME280_pressure;Samples;Min_cycle;Max_cycle;Signal;HPM_P1;HPM_P2
2021/07/17 00:01:59;;;;;;;31.80;24.98;;;;;;;16.32;100.00;96418.03;4995098;28;20769;-77
2021/07/17 00:04:25;;;;;;;29.65;23.75;;;;;;;16.44;100.00;96417.09;4991710;28;20426;-78
2021/07/17 00:06:51;;;;;;;31.75;24.55;;;;;;;16.46;100.00;96419.56;4989953;28;20434;-78
2021/07/17 00:09:16;;;;;;;32.87;25.33;;;;;;;16.50;100.00;96423.66;4990125;28;20508;-78
2021/07/17 00:11:42;;;;;;;30.35;25.13;;;;;;;16.49;100.00;96413.28;4990067;28;20429;-78
2021/07/17 00:14:07;;;;;;;28.90;24.67;;;;;;;16.30;100.00;96414.66;4990105;28;20430;-78
2021/07/17 00:16:34;;;;;;;29.53;23.40;;;;;;;16.25;100.00;96421.22;4989734;28;20840;-78
2021/07/17 00:18:59;;;;;;;34.72;24.88;;;;;;;16.31;100.00;96420.72;4990108;28;20446;-78
2021/07/17 00:21:25;;;;;;;28.23;24.90;;;;;;;16.27;100.00;96422.75;4991233;28;20442;-78
2021/07/17 00:23:51;;;;;;;35.42;26.35;;;;;;;16.31;100.00;96423.34;4989896;28;21155;-78
2021/07/17 00:26:16;;;;;;;30.60;24.70;;;;;;;15.92;100.00;96425.38;4989732;28;20426;-77
2021/07/17 00:28:42;;;;;;;32.00;25.45;;;;;;;16.00;100.00;96417.81;4991211;28;20817;-78
2021/07/17 00:31:07;;;;;;;34.30;26.80;;;;;;;15.86;100.00;96421.44;4989872;28;20425;-79
2021/07/17 00:33:34;;;;;;;36.30;29.07;;;;;;;15.90;100.00;96424.66;4989722;28;20430;-78
2021/07/17 00:36:00;;;;;;;35.58;28.83;;;;;;;15.88;100.00;96427.38;4989772;28;20515;-79
2021/07/17 00:38:25;;;;;;;32.17;28.53;;;;;;;15.83;100.00;96420.81;4989850;28;20477;-78
2021/07/17 00:40:50;;;;;;;37.88;29.95;;;;;;;15.78;100.00;96426.38;4989846;28;20461;-78
2021/07/17 00:43:16;;;;;;;39.53;30.23;;;;;;;15.73;100.00;96423.28;4989637;28;20426;-79
2021/07/17 00:45:41;;;;;;;41.53;30.23;;;;;;;15.85;100.00;96422.38;4989502;28;20430;-78
2021/07/17 00:48:07;;;;;;;39.47;29.53;;;;;;;15.75;100.00;96416.16;4991065;28;20414;-78
2021/07/17 00:50:34;;;;;;;37.30;30.20;;;;;;;15.71;100.00;96409.50;4989668;28;20951;-78
2021/07/17 00:52:59;;;;;;;36.10;30.90;;;;;;;15.66;100.00;96409.00;4992262;28;20457;-78
2021/07/17 00:55:26;;;;;;;37.03;30.00;;;;;;;15.71;100.00;96405.09;4994193;28;20453;-79
2021/07/17 00:57:53;;;;;;;31.58;28.13;;;;;;;15.81;100.00;96407.06;4992951;28;20430;-78
2021/07/17 01:00:19;;;;;;;40.35;29.50;;;;;;;15.72;100.00;96412.00;4993152;28;20440;-79
2021/07/17 01:02:47;;;;;;;38.85;29.65;;;;;;;15.75;100.00;96407.50;4994347;28;20461;-77
2021/07/17 01:05:14;;;;;;;38.42;30.27;;;;;;;15.72;100.00;96396.34;4993057;28;20434;-78
2021/07/17 01:07:41;;;;;;;39.10;30.30;;;;;;;15.65;100.00;96395.13;4993532;28;20426;-77
2021/07/17 01:10:09;;;;;;;34.92;29.92;;;;;;;15.63;100.00;96394.34;4994730;28;20436;-77
2021/07/17 01:12:35;;;;;;;33.17;27.92;;;;;;;15.71;100.00;96392.03;4993429;28;20484;-77
2021/07/17 01:15:01;;;;;;;34.40;27.03;;;;;;;15.84;100.00;96386.75;4993532;28;20426;-77
2021/07/17 01:17:26;;;;;;;35.88;28.60;;;;;;;15.77;100.00;96388.16;4993672;28;20453;-78
2021/07/17 01:19:52;;;;;;;36.03;28.83;;;;;;;15.63;100.00;96385.69;4996193;28;20462;-78
2021/07/17 01:22:19;;;;;;;34.08;27.58;;;;;;;15.56;100.00;96398.34;4997078;28;20436;-77
2021/07/17 01:24:46;;;;;;;34.92;28.90;;;;;;;15.80;100.00;96384.50;4995399;28;20410;-78
2021/07/17 01:27:12;;;;;;;33.50;27.63;;;;;;;15.71;100.00;96386.81;4996802;28;20437;-77
2021/07/17 01:29:39;;;;;;;29.70;26.50;;;;;;;15.75;100.00;96384.81;4997120;28;20441;-78
2021/07/17 01:32:06;;;;;;;40.85;27.90;;;;;;;15.64;100.00;96384.75;4997018;28;20513;-78
2021/07/17 01:34:31;;;;;;;37.38;28.98;;;;;;;15.93;100.00;96391.28;4997145;28;20480;-77
2021/07/17 01:36:56;;;;;;;37.33;27.27;;;;;;;15.75;100.00;96390.03;4996018;28;20442;-78
2021/07/17 01:39:23;;;;;;;31.07;25.43;;;;;;;15.87;100.00;96389.16;4995098;28;20426;-78
2021/07/17 01:41:49;;;;;;;25.85;23.25;;;;;;;15.92;100.00;96394.03;4995220;28;20477;-77
2021/07/17 01:44:14;;;;;;;32.33;24.95;;;;;;;15.89;100.00;96394.25;4996118;28;20800;-78
2021/07/17 01:46:42;;;;;;;31.43;24.73;;;;;;;15.86;100.00;96397.91;4996374;28;20443;-78
2021/07/17 01:49:08;;;;;;;27.38;24.42;;;;;;;15.82;100.00;96393.03;4996703;28;20415;-78
2021/07/17 01:51:33;;;;;;;31.07;25.17;;;;;;;15.83;100.00;96392.09;4996629;28;20481;-78
2021/07/17 01:54:00;;;;;;;31.60;25.03;;;;;;;15.75;100.00;96392.66;4996876;28;20422;-77
2021/07/17 01:56:27;;;;;;;28.52;24.08;;;;;;;15.86;100.00;96394.47;4994865;28;20426;-78
2021/07/17 01:58:54;;;;;;;27.17;24.25;;;;;;;15.90;100.00;96394.13;4991466;28;20450;-78
2021/07/17 02:01:19;;;;;;;29.55;24.13;;;;;;;15.86;100.00;96389.25;4994177;28;20426;-77
2021/07/17 02:03:45;;;;;;;30.30;23.67;;;;;;;15.89;100.00;96387.25;4992455;28;20492;-77
2021/07/17 02:06:11;;;;;;;28.35;23.02;;;;;;;16.03;100.00;96396.69;4992524;28;20514;-77
2021/07/17 02:08:37;;;;;;;35.93;25.00;;;;;;;16.02;100.00;96397.63;4993983;28;20928;-78
2021/07/17 02:11:04;;;;;;;30.83;24.67;;;;;;;16.08;100.00;96397.16;4992268;28;20436;-77
2021/07/17 02:13:31;;;;;;;28.90;24.13;;;;;;;15.88;100.00;96393.44;4993803;28;20421;-76
2021/07/17 02:15:57;;;;;;;33.80;25.42;;;;;;;15.94;100.00;96398.22;4992661;28;20434;-77
2021/07/17 02:18:26;;;;;;;28.38;24.15;;;;;;;16.21;100.00;96407.53;4992599;28;20558;-77
2021/07/17 02:20:52;;;;;;;31.05;25.27;;;;;;;15.98;100.00;96396.16;4992561;28;20912;-77
2021/07/17 02:23:17;;;;;;;29.67;25.13;;;;;;;15.73;100.00;96384.94;4992502;28;20515;-78
2021/07/17 02:25:43;;;;;;;38.83;26.70;;;;;;;15.59;100.00;96385.09;4992257;28;20426;-76
2021/07/17 02:28:09;;;;;;;32.83;25.27;;;;;;;15.69;100.00;96388.72;4993746;28;20419;-77
2021/07/17 02:30:35;;;;;;;31.87;26.73;;;;;;;15.56;100.00;96390.53;4993867;28;20441;-77
2021/07/17 02:33:01;;;;;;;34.83;26.67;;;;;;;15.45;100.00;96380.03;4992103;28;20414;-77
2021/07/17 02:35:26;;;;;;;30.27;26.03;;;;;;;15.55;100.00;96388.88;4991391;28;20476;-78
2021/07/17 02:37:52;;;;;;;32.13;25.20;;;;;;;15.50;100.00;96391.00;4992729;28;20848;-78
2021/07/17 02:40:17;;;;;;;33.10;25.60;;;;;;;15.49;100.00;96392.75;4991490;28;20450;-79
2021/07/17 02:42:43;;;;;;;32.90;26.73;;;;;;;15.52;100.00;96380.41;4991388;28;20429;-78
2021/07/17 02:45:10;;;;;;;32.80;25.70;;;;;;;15.52;100.00;96383.88;4991097;28;20484;-79
2021/07/17 02:47:37;;;;;;;30.05;24.90;;;;;;;15.56;100.00;96380.09;4992744;28;20427;-78
2021/07/17 02:50:04;;;;;;;31.02;26.40;;;;;;;15.63;100.00;96378.69;4973079;28;20830;-78
2021/07/17 02:52:30;;;;;;;36.38;26.83;;;;;;;15.52;100.00;96375.19;4985625;28;20419;-79
2021/07/17 02:54:55;;;;;;;34.80;25.60;;;;;;;15.52;100.00;96381.25;4992147;28;21036;-78
2021/07/17 02:57:21;;;;;;;33.63;27.53;;;;;;;15.54;100.00;96382.00;4991967;28;20437;-78
2021/07/17 02:59:46;;;;;;;47.08;28.35;;;;;;;15.39;100.00;96377.88;4991066;28;20434;-78
2021/07/17 03:02:11;;;;;;;35.83;27.90;;;;;;;15.35;100.00;96384.25;4990836;28;20426;-78
2021/07/17 03:04:38;;;;;;;39.60;27.80;;;;;;;15.39;100.00;96380.50;4991059;28;20418;-78
2021/07/17 03:07:04;;;;;;;33.83;27.45;;;;;;;15.46;100.00;96381.69;4990649;28;20429;-78
2021/07/17 03:09:29;;;;;;;35.90;28.58;;;;;;;15.33;100.00;96379.16;4990708;28;20430;-78
2021/07/17 03:11:55;;;;;;;35.22;27.77;;;;;;;15.23;100.00;96373.75;4990885;28;20438;-78
2021/07/17 03:14:20;;;;;;;33.90;28.17;;;;;;;15.17;100.00;96373.38;4990889;28;20423;-78
2021/07/17 03:16:45;;;;;;;37.47;27.30;;;;;;;15.16;100.00;96372.50;4990044;28;20422;-78
2021/07/17 03:19:11;;;;;;;33.03;27.90;;;;;;;15.21;100.00;96373.03;4991733;28;20441;-78
2021/07/17 03:21:39;;;;;;;36.50;25.67;;;;;;;15.29;100.00;96379.47;4991697;28;20418;-78
2021/07/17 03:24:04;;;;;;;36.97;29.25;;;;;;;15.18;100.00;96377.63;4991657;28;20524;-78
2021/07/17 03:26:29;;;;;;;35.00;28.10;;;;;;;15.22;100.00;96381.69;4989931;28;20430;-78
2021/07/17 03:28:55;;;;;;;31.50;25.70;;;;;;;15.27;100.00;96387.41;4990477;28;20431;-78
2021/07/17 03:31:25;;;;;;;33.03;25.58;;;;;;;15.44;100.00;96391.44;4990688;28;20426;-78
2021/07/17 03:33:51;;;;;;;34.15;25.40;;;;;;;15.54;100.00;96395.03;4991728;28;20446;-78
2021/07/17 03:36:16;;;;;;;34.60;26.40;;;;;;;15.47;100.00;96399.03;4990252;28;20454;-78
2021/07/17 03:38:43;;;;;;;34.83;27.75;;;;;;;15.46;100.00;96393.00;4991400;28;20461;-77
2021/07/17 03:41:08;;;;;;;37.42;30.00;;;;;;;15.55;100.00;96399.31;4990255;28;20435;-78
2021/07/17 03:43:33;;;;;;;32.47;27.67;;;;;;;15.48;100.00;96390.25;4990430;28;20430;-78
2021/07/17 03:45:59;;;;;;;33.83;26.50;;;;;;;15.42;100.00;96383.69;4991397;28;20789;-79
2021/07/17 03:48:24;;;;;;;34.30;27.58;;;;;;;15.38;100.00;96384.03;4990377;28;20473;-78
2021/07/17 03:50:49;;;;;;;30.70;26.83;;;;;;;15.29;100.00;96395.97;4991559;28;20865;-78
2021/07/17 03:53:15;;;;;;;33.47;26.10;;;;;;;15.25;100.00;96386.69;4990228;28;20434;-78
2021/07/17 03:55:42;;;;;;;28.42;25.13;;;;;;;15.27;100.00;96387.41;4990001;28;20557;-78
2021/07/17 03:58:07;;;;;;;35.65;26.95;;;;;;;15.09;100.00;96392.19;4991309;28;20477;-78
2021/07/17 04:00:32;;;;;;;35.50;27.10;;;;;;;15.11;100.00;96398.09;4990116;28;20430;-78
2021/07/17 04:02:58;;;;;;;36.50;26.40;;;;;;;15.16;100.00;96396.00;4991658;28;20839;-78
2021/07/17 04:05:23;;;;;;;33.53;25.70;;;;;;;15.21;100.00;96396.53;4992877;28;20418;-77
2021/07/17 04:07:49;;;;;;;35.20;25.80;;;;;;;15.19;100.00;96394.94;4994843;28;20426;-78
2021/07/17 04:10:15;;;;;;;34.15;26.40;;;;;;;15.17;100.00;96396.84;4996232;28;20436;-78
2021/07/17 04:12:42;;;;;;;35.45;25.95;;;;;;;15.20;100.00;96397.47;4995936;28;20784;-78
2021/07/17 04:15:08;;;;;;;34.78;27.45;;;;;;;15.19;100.00;96398.38;4996242;28;20441;-78
2021/07/17 04:17:34;;;;;;;32.38;26.63;;;;;;;15.19;100.00;96394.94;4994315;28;20485;-78
2021/07/17 04:19:59;;;;;;;34.38;26.02;;;;;;;15.27;100.00;96392.63;4994448;28;20430;-77
2021/07/17 04:22:25;;;;;;;33.47;26.90;;;;;;;15.07;100.00;96401.88;4995309;28;20808;-78
2021/07/17 04:24:50;;;;;;;40.20;28.23;;;;;;;15.15;100.00;96401.34;4994964;28;20975;-77
2021/07/17 04:27:15;;;;;;;35.07;27.00;;;;;;;15.08;100.00;96405.31;4992393;28;20425;-75
2021/07/17 04:29:42;;;;;;;32.42;26.10;;;;;;;15.13;100.00;96409.28;4994813;28;20426;-74
2021/07/17 04:32:08;;;;;;;41.42;27.33;;;;;;;15.17;100.00;96405.50;4994660;28;20422;-75
2021/07/17 04:34:33;;;;;;;33.70;27.25;;;;;;;15.18;100.00;96404.56;4994545;28;20485;-75
2021/07/17 04:36:59;;;;;;;31.93;26.60;;;;;;;15.18;100.00;96408.94;4994234;28;20848;-75
2021/07/17 04:39:24;;;;;;;31.53;24.33;;;;;;;15.28;100.00;96411.72;4994227;28;20426;-74
2021/07/17 04:41:50;;;;;;;37.70;25.77;;;;;;;15.35;100.00;96413.81;4993264;28;20426;-75
2021/07/17 04:44:16;;;;;;;39.27;26.93;;;;;;;15.25;100.00;96412.78;4993377;28;20546;-75
2021/07/17 04:46:42;;;;;;;34.87;26.73;;;;;;;15.37;100.00;96417.13;4994092;28;20434;-75
2021/07/17 04:49:08;;;;;;;33.08;25.02;;;;;;;15.42;100.00;96416.78;4994282;28;20892;-75
2021/07/17 04:51:33;;;;;;;38.00;25.80;;;;;;;15.41;100.00;96420.34;4992924;28;20440;-75
2021/07/17 04:53:59;;;;;;;32.90;25.80;;;;;;;15.35;100.00;96420.78;4989944;28;20480;-75
2021/07/17 04:56:24;;;;;;;33.97;25.43;;;;;;;15.30;100.00;96423.72;4985093;28;20474;-75
2021/07/17 04:58:49;;;;;;;38.67;26.03;;;;;;;15.27;100.00;96423.09;4988659;28;20947;-75
2021/07/17 05:01:15;;;;;;;33.20;24.98;;;;;;;15.24;100.00;96422.41;4990692;28;20453;-75
2021/07/17 05:03:42;;;;;;;32.50;26.00;;;;;;;15.27;100.00;96428.31;4992857;28;20465;-75
2021/07/17 05:06:07;;;;;;;41.00;26.97;;;;;;;15.29;100.00;96416.84;4993986;28;20470;-75
2021/07/17 05:08:32;;;;;;;33.87;27.13;;;;;;;15.38;100.00;96416.19;4992564;28;20968;-75
2021/07/17 05:10:58;;;;;;;32.00;26.97;;;;;;;15.29;100.00;96421.25;4994096;28;20461;-75
2021/07/17 05:13:26;;;;;;;34.45;25.30;;;;;;;15.45;100.00;96427.84;4994167;28;20428;-75
2021/07/17 05:15:52;;;;;;;32.05;24.10;;;;;;;15.60;100.00;96431.13;4993813;28;20785;-75
2021/07/17 05:18:19;;;;;;;32.03;25.10;;;;;;;15.59;100.00;96432.09;4992824;28;20464;-75
2021/07/17 05:20:45;;;;;;;39.35;27.85;;;;;;;15.38;100.00;96431.00;4993857;28;20488;-75
2021/07/17 05:23:11;;;;;;;35.47;26.73;;;;;;;15.34;100.00;96433.00;4992662;28;20510;-75
2021/07/17 05:25:38;;;;;;;32.30;25.90;;;;;;;15.28;100.00;96422.16;4992382;28;20513;-75
2021/07/17 05:28:03;;;;;;;37.65;27.73;;;;;;;15.15;100.00;96425.66;4994031;28;20442;-75
2021/07/17 05:30:29;;;;;;;39.60;26.63;;;;;;;15.17;100.00;96417.72;4992873;28;20411;-74
2021/07/17 05:32:54;;;;;;;31.57;26.83;;;;;;;15.33;100.00;96417.47;4993761;28;20430;-76
2021/07/17 05:35:20;;;;;;;32.73;25.37;;;;;;;15.33;100.00;96413.06;4993437;28;20410;-76
2021/07/17 05:37:47;;;;;;;37.03;26.95;;;;;;;15.24;100.00;96414.56;4992084;28;20795;-75
2021/07/17 05:40:13;;;;;;;35.85;27.17;;;;;;;15.21;100.00;96408.75;4993045;28;20480;-76
2021/07/17 05:42:38;;;;;;;37.00;27.38;;;;;;;15.26;100.00;96417.06;4992632;28;20435;-76
2021/07/17 05:45:04;;;;;;;36.20;26.23;;;;;;;15.29;100.00;96421.25;4993777;28;20896;-76
2021/07/17 05:47:30;;;;;;;29.73;23.83;;;;;;;15.43;100.00;96423.69;4992320;28;20924;-76
2021/07/17 05:49:56;;;;;;;32.45;24.25;;;;;;;15.36;100.00;96423.31;4993673;28;20485;-76
2021/07/17 05:52:21;;;;;;;32.40;25.00;;;;;;;15.44;100.00;96418.34;4993634;28;20851;-76
2021/07/17 05:54:48;;;;;;;34.13;25.93;;;;;;;15.37;100.00;96414.50;4993501;28;20423;-76
2021/07/17 05:57:14;;;;;;;37.83;27.02;;;;;;;15.32;100.00;96414.03;4991984;28;20426;-76
2021/07/17 05:59:39;;;;;;;32.80;25.70;;;;;;;15.30;100.00;96412.47;4990979;28;20518;-78
2021/07/17 06:02:05;;;;;;;29.90;24.43;;;;;;;15.40;100.00;96418.69;4988416;28;20438;-77
2021/07/17 06:04:31;;;;;;;34.38;24.50;;;;;;;15.44;100.00;96420.13;4985191;28;20511;-78
2021/07/17 06:06:57;;;;;;;28.42;23.52;;;;;;;15.57;100.00;96422.69;4988186;28;20493;-77
2021/07/17 06:09:22;;;;;;;26.27;22.27;;;;;;;15.64;100.00;96426.53;4988620;28;20937;-77
2021/07/17 06:11:49;;;;;;;31.95;23.55;;;;;;;15.63;100.00;96427.47;4989626;28;20448;-77
2021/07/17 06:14:15;;;;;;;34.00;23.00;;;;;;;15.59;100.00;96433.88;4991820;28;20465;-78
2021/07/17 06:16:40;;;;;;;29.85;22.15;;;;;;;15.70;100.00;96431.34;4979383;28;20430;-76
2021/07/17 06:19:06;;;;;;;31.23;22.53;;;;;;;15.79;100.00;96429.81;4976344;28;20759;-77
2021/07/17 06:21:32;;;;;;;32.50;23.07;;;;;;;15.80;100.00;96432.34;4989132;28;20480;-79
2021/07/17 06:23:57;;;;;;;32.00;22.85;;;;;;;15.79;100.00;96430.66;4983495;28;20512;-79
2021/07/17 06:26:23;;;;;;;26.83;22.50;;;;;;;15.82;100.00;96434.84;4986103;28;20499;-79
2021/07/17 06:28:49;;;;;;;34.63;22.70;;;;;;;15.89;100.00;96442.09;4993920;28;20497;-78
2021/07/17 06:31:16;;;;;;;30.33;22.17;;;;;;;15.86;100.00;96436.28;4976104;28;20424;-80
2021/07/17 06:33:42;;;;;;;32.03;22.93;;;;;;;15.80;100.00;96439.34;4973638;28;20881;-80
2021/07/17 06:36:08;;;;;;;31.00;23.33;;;;;;;15.76;100.00;96443.97;4972463;28;20520;-78
2021/07/17 06:38:33;;;;;;;32.93;23.13;;;;;;;15.67;100.00;96442.00;4971776;28;20516;-78
2021/07/17 06:40:59;;;;;;;29.97;23.73;;;;;;;15.52;100.00;96438.69;4987157;28;20419;-79
2021/07/17 06:43:24;;;;;;;41.42;24.70;;;;;;;15.42;100.00;96440.28;4991350;28;20422;-78
2021/07/17 06:45:51;;;;;;;28.13;24.10;;;;;;;15.62;100.00;96449.31;4991289;28;20468;-78
2021/07/17 06:48:16;;;;;;;33.83;25.47;;;;;;;15.47;100.00;96446.84;4992673;28;20896;-76
2021/07/17 06:50:43;;;;;;;32.63;23.93;;;;;;;15.63;100.00;96453.59;4990890;28;20425;-78
2021/07/17 06:53:08;;;;;;;32.85;24.98;;;;;;;15.62;100.00;96454.53;4992645;28;20434;-78
2021/07/17 06:55:34;;;;;;;33.50;24.77;;;;;;;15.58;100.00;96448.69;4991299;28;20422;-78
2021/07/17 06:57:59;;;;;;;34.95;25.13;;;;;;;15.70;100.00;96460.91;4991271;28;20952;-78
2021/07/17 07:00:24;;;;;;;34.80;24.07;;;;;;;15.69;100.00;96458.41;4984117;28;20430;-78
2021/07/17 07:02:51;;;;;;;38.40;25.60;;;;;;;15.65;100.00;96459.53;4992434;28;20468;-78
2021/07/17 07:05:17;;;;;;;33.95;24.15;;;;;;;15.59;100.00;96466.03;4992580;28;20417;-77
2021/07/17 07:07:42;;;;;;;35.77;24.77;;;;;;;15.62;100.00;96463.19;4992416;28;20576;-78
2021/07/17 07:10:10;;;;;;;33.80;22.77;;;;;;;15.77;100.00;96463.06;4991785;28;21280;-78
2021/07/17 07:12:37;;;;;;;28.85;22.48;;;;;;;15.88;100.00;96466.56;4992681;28;20783;-78
2021/07/17 07:15:05;;;;;;;36.45;23.63;;;;;;;16.26;100.00;96475.16;4991177;28;20936;-78
2021/07/17 07:17:30;;;;;;;32.90;22.00;;;;;;;16.06;100.00;96469.63;4991000;28;20423;-78
2021/07/17 07:19:57;;;;;;;30.20;21.65;;;;;;;16.05;100.00;96469.72;4990901;28;20426;-78
2021/07/17 07:22:23;;;;;;;29.90;20.63;;;;;;;16.15;100.00;96470.72;4992249;28;20418;-78
2021/07/17 07:24:48;;;;;;;29.38;22.02;;;;;;;16.07;100.00;96471.28;4992182;28;20517;-78
2021/07/17 07:27:14;;;;;;;26.03;19.90;;;;;;;16.27;100.00;96467.19;4992290;28;20868;-78
2021/07/17 07:29:39;;;;;;;25.43;21.27;;;;;;;16.18;100.00;96471.31;4997559;28;20473;-78
2021/07/17 07:32:05;;;;;;;28.33;21.37;;;;;;;16.25;100.00;96478.72;5010257;28;20428;-78
2021/07/17 07:34:30;;;;;;;39.22;26.13;;;;;;;16.42;100.00;96471.25;5009269;28;20427;-78
2021/07/17 07:36:57;;;;;;;37.27;25.60;;;;;;;16.55;100.00;96465.13;4992078;28;20454;-78
2021/07/17 07:39:23;;;;;;;34.60;26.30;;;;;;;16.20;100.00;96458.97;4990655;28;20426;-75
2021/07/17 07:41:48;;;;;;;32.47;24.80;;;;;;;16.21;100.00;96463.25;4992060;28;20501;-79
2021/07/17 07:44:13;;;;;;;37.47;25.55;;;;;;;15.91;100.00;96455.06;4971917;28;20906;-78
2021/07/17 07:46:39;;;;;;;40.47;26.23;;;;;;;15.84;100.00;96459.91;4971424;28;20543;-77
2021/07/17 07:49:05;;;;;;;36.47;27.00;;;;;;;15.75;100.00;96457.94;4973023;28;20436;-77
2021/07/17 07:51:32;;;;;;;37.88;26.38;;;;;;;15.77;100.00;96465.69;4978586;28;20422;-77
2021/07/17 07:53:58;;;;;;;38.78;27.30;;;;;;;15.70;100.00;96462.69;4990873;28;20426;-77
2021/07/17 07:56:24;;;;;;;41.30;28.17;;;;;;;15.65;100.00;96457.78;4991685;28;20417;-76
2021/07/17 07:58:49;;;;;;;39.57;29.00;;;;;;;15.89;100.00;96470.00;5062300;23;20451;-75
2021/07/17 08:01:15;;;;;;;35.47;27.87;;;;;;;16.09;100.00;96479.84;4990880;28;20426;-77
2021/07/17 08:03:40;;;;;;;40.15;28.83;;;;;;;16.18;100.00;96489.59;4991936;28;20453;-77
2021/07/17 08:06:06;;;;;;;35.70;27.93;;;;;;;16.21;100.00;96489.38;4993987;28;20434;-77
2021/07/17 08:08:31;;;;;;;36.30;27.90;;;;;;;16.10;100.00;96488.50;4992290;28;20461;-77
2021/07/17 08:10:58;;;;;;;40.53;27.33;;;;;;;16.14;100.00;96482.94;4993738;28;20518;-77
2021/07/17 08:13:24;;;;;;;43.42;29.13;;;;;;;16.09;100.00;96487.69;4992733;28;21116;-77
2021/07/17 08:15:50;;;;;;;40.63;28.77;;;;;;;16.34;100.00;96483.25;4993825;28;20422;-77
2021/07/17 08:18:15;;;;;;;38.03;27.13;;;;;;;16.26;100.00;96490.81;4994486;28;20788;-78
2021/07/17 08:20:41;;;;;;;37.20;27.70;;;;;;;16.26;100.00;96488.22;4994315;28;20434;-78
2021/07/17 08:23:06;;;;;;;41.40;27.57;;;;;;;16.06;100.00;96487.91;4993761;28;20506;-77
2021/07/17 08:25:32;;;;;;;37.78;27.88;;;;;;;16.07;100.00;96493.97;4993923;28;20454;-77
2021/07/17 08:27:58;;;;;;;39.03;27.23;;;;;;;16.03;100.00;96495.13;4992624;28;20438;-77
2021/07/17 08:30:24;;;;;;;34.58;26.45;;;;;;;16.13;100.00;96490.88;4993104;28;20438;-77
2021/07/17 08:32:49;;;;;;;46.20;26.70;;;;;;;16.05;100.00;96494.06;4992698;28;20800;-77
2021/07/17 08:35:15;;;;;;;37.37;26.50;;;;;;;16.17;100.00;96493.19;4993938;28;20430;-78
2021/07/17 08:37:40;;;;;;;34.43;25.40;;;;;;;16.32;100.00;96493.81;4993933;28;20465;-78
2021/07/17 08:40:07;;;;;;;33.75;23.27;;;;;;;16.35;100.00;96488.38;4992830;28;20429;-78
2021/07/17 08:42:35;;;;;;;35.92;23.40;;;;;;;16.36;100.00;96478.75;4993684;28;20839;-78
2021/07/17 08:45:05;;;;;;;32.80;23.25;;;;;;;16.41;100.00;96482.66;4991712;28;20800;-76
2021/07/17 08:47:35;;;;;;;32.65;23.13;;;;;;;16.43;100.00;96491.25;4989499;28;20426;-77
2021/07/17 08:50:01;;;;;;;32.72;22.45;;;;;;;16.48;100.00;96490.06;4991027;28;20445;-77
2021/07/17 08:52:29;;;;;;;32.90;21.92;;;;;;;16.63;100.00;96491.53;4989640;28;20436;-76
2021/07/17 08:55:02;;;;;;;30.67;21.58;;;;;;;16.58;100.00;96485.81;4990999;28;20414;-77
2021/07/17 08:57:27;;;;;;;31.95;21.48;;;;;;;16.55;100.00;96486.03;4990967;28;20430;-77
2021/07/17 08:59:53;;;;;;;35.57;22.13;;;;;;;16.51;100.00;96495.06;4989496;28;20793;-76
2021/07/17 09:02:20;;;;;;;33.92;21.67;;;;;;;16.58;100.00;96491.03;4990779;28;20428;-76
2021/07/17 09:04:46;;;;;;;29.00;21.13;;;;;;;16.61;100.00;96490.78;4971524;28;20905;-76
2021/07/17 09:07:11;;;;;;;28.43;20.20;;;;;;;16.78;100.00;96487.78;4974950;28;20437;-76
2021/07/17 09:09:38;;;;;;;32.77;20.73;;;;;;;16.98;100.00;96477.56;4991026;28;20421;-76
2021/07/17 09:12:20;;;;;;;30.08;19.15;;;;;;;17.18;100.00;96477.69;4989816;28;20430;-77
2021/07/17 09:14:45;;;;;;;28.40;19.73;;;;;;;17.49;100.00;96477.88;4972926;28;20436;-77
2021/07/17 09:17:20;;;;;;;27.97;19.47;;;;;;;17.38;100.00;96475.28;4982056;28;20428;-77
2021/07/17 09:19:54;;;;;;;23.08;17.08;;;;;;;17.49;100.00;96479.69;4994197;28;21013;-76
2021/07/17 09:22:30;;;;;;;29.05;17.15;;;;;;;17.35;100.00;96484.22;4994444;28;20896;-75
2021/07/17 09:25:06;;;;;;;23.25;16.23;;;;;;;17.37;100.00;96477.06;4994871;28;20426;-76
2021/07/17 09:27:31;;;;;;;27.75;17.15;;;;;;;17.42;100.00;96480.16;4980994;28;20506;-76
2021/07/17 09:29:57;;;;;;;21.95;17.35;;;;;;;17.42;100.00;96474.09;5004654;28;20462;-76
2021/07/17 09:32:23;;;;;;;25.10;17.93;;;;;;;17.26;100.00;96473.63;4992038;28;20466;-75
2021/07/17 09:34:49;;;;;;;21.20;17.02;;;;;;;17.13;100.00;96461.50;4990908;28;20438;-75
2021/07/17 09:37:22;;;;;;;21.80;16.27;;;;;;;17.26;100.00;96476.25;4979626;28;20411;-76
2021/07/17 09:39:52;;;;;;;24.35;16.48;;;;;;;17.36;100.00;96466.72;4984487;28;20455;-76
2021/07/17 09:42:19;;;;;;;23.77;14.95;;;;;;;17.45;100.00;96473.03;4987076;28;20770;-76
2021/07/17 09:44:48;;;;;;;20.53;14.10;;;;;;;17.46;100.00;96464.19;4990866;28;20828;-76
2021/07/17 09:47:15;;;;;;;20.15;14.30;;;;;;;17.55;100.00;96461.69;4987930;28;20844;-76
2021/07/17 09:49:41;;;;;;;17.48;14.15;;;;;;;17.63;100.00;96467.16;4990450;28;20424;-75
2021/07/17 09:52:09;;;;;;;19.43;14.03;;;;;;;17.59;100.00;96468.34;4981912;28;20433;-76
2021/07/17 09:54:36;;;;;;;22.45;14.35;;;;;;;17.54;100.00;96462.66;4986300;28;20434;-77
2021/07/17 09:57:03;;;;;;;19.20;15.05;;;;;;;17.55;100.00;96464.31;4981782;28;20416;-72
2021/07/17 09:59:28;;;;;;;20.08;14.25;;;;;;;17.58;100.00;96468.47;4976001;28;20795;-75
2021/07/17 10:01:53;;;;;;;19.13;14.23;;;;;;;17.86;100.00;96465.31;4983626;28;20423;-74
2021/07/17 10:04:19;;;;;;;17.87;13.43;;;;;;;18.17;100.00;96464.59;4983472;28;20426;-75
2021/07/17 10:06:46;;;;;;;17.50;12.87;;;;;;;18.10;100.00;96459.88;4983639;28;20430;-74
2021/07/17 10:09:24;;;;;;;21.15;13.05;;;;;;;18.07;100.00;96452.28;4979028;28;20789;-75
2021/07/17 10:11:56;;;;;;;15.02;12.80;;;;;;;18.27;100.00;96453.25;4990789;28;20462;-75
2021/07/17 10:14:24;;;;;;;17.40;11.95;;;;;;;18.29;100.00;96450.50;4988651;28;20469;-74
2021/07/17 10:16:53;;;;;;;13.88;11.70;;;;;;;18.42;100.00;96445.88;4988156;28;20493;-75
2021/07/17 10:19:20;;;;;;;14.90;11.98;;;;;;;18.42;100.00;96445.88;4984336;28;20428;-75
2021/07/17 10:21:46;;;;;;;22.70;12.60;;;;;;;18.38;100.00;96442.69;4986297;28;20519;-74
2021/07/17 10:24:13;;;;;;;19.58;12.70;;;;;;;18.49;100.00;96436.53;4981759;28;20516;-75
2021/07/17 10:26:40;;;;;;;21.40;12.57;;;;;;;18.26;100.00;96441.09;4983984;28;20497;-75
2021/07/17 10:29:08;;;;;;;16.88;11.90;;;;;;;18.35;100.00;96437.72;4982436;28;20430;-75
2021/07/17 10:31:34;;;;;;;17.70;12.43;;;;;;;18.37;100.00;96437.59;4982214;28;20969;-75
2021/07/17 10:34:00;;;;;;;19.40;12.70;;;;;;;18.32;100.00;96447.63;4976483;28;20450;-76
2021/07/17 10:36:26;;;;;;;24.43;11.57;;;;;;;18.56;100.00;96432.44;4981162;28;20606;-75
2021/07/17 10:38:56;;;;;;;16.17;11.23;;;;;;;18.50;100.00;96432.13;4988787;28;20502;-75
2021/07/17 10:41:24;;;;;;;14.77;12.10;;;;;;;18.67;100.00;96436.78;5005081;28;20423;-76
2021/07/17 10:43:52;;;;;;;19.80;12.45;;;;;;;18.54;99.87;96433.53;4992057;28;20462;-75
2021/07/17 10:46:32;;;;;;;17.08;11.93;;;;;;;18.45;100.00;96423.81;4991863;28;20426;-75
2021/07/17 10:48:59;;;;;;;16.65;12.75;;;;;;;18.44;100.00;96425.63;4992181;28;20525;-75
2021/07/17 10:51:34;;;;;;;20.88;14.18;;;;;;;18.53;100.00;96429.25;4992158;28;20430;-75
2021/07/17 10:54:02;;;;;;;19.20;13.52;;;;;;;18.51;100.00;96429.41;4990500;28;20430;-76
2021/07/17 10:56:42;;;;;;;21.63;14.17;;;;;;;18.47;100.00;96429.78;4991801;28;20434;-75
2021/07/17 10:59:47;;;;;;;23.83;15.98;;;;;;;18.53;99.93;96427.47;4991051;28;20445;-76
2021/07/17 11:02:22;;;;;;;20.60;13.07;;;;;;;18.54;99.81;96423.91;4992184;28;20430;-76
2021/07/17 11:04:58;;;;;;;18.60;12.33;;;;;;;18.80;99.19;96420.84;4991748;28;20457;-76
2021/07/17 11:07:34;;;;;;;15.25;11.43;;;;;;;18.97;98.79;96422.88;4990508;28;20840;-77